sensor_id;sensor_type;location;lat;lon;timestamp;P1;durP1;ratioP1;P2;durP2;ratioP2
55559;SDS011;41414;53.250;6.514;2022-09-21T00:00:07;23.23;;;3.60;;
55559;SDS011;41414;53.250;6.514;2022-09-21T00:02:33;3.92;;;2.25;;
55559;SDS011;41414;53.250;6.514;2022-09-21T00:05:00;8.30;;;2.38;;
55559;SDS011;41414;53.250;6.514;2022-09-21T00:07:26;11.60;;;2.95;;
55559;SDS011;41414;53.250;6.514;2022-09-21T00:09:52;8.00;;;2.63;;
55559;SDS011;41414;53.250;6.514;2022-09-21T00:12:18;12.00;;;4.63;;
55559;SDS011;41414;53.250;6.514;2022-09-21T00:14:45;9.65;;;5.80;;
55559;SDS011;41414;53.250;6.514;2022-09-21T00:17:11;30.33;;;6.85;;
55559;SDS011;41414;53.250;6.514;2022-09-21T00:19:37;41.17;;;6.43;;
55559;SDS011;41414;53.250;6.514;2022-09-21T00:22:04;14.43;;;6.03;;
55559;SDS011;41414;53.250;6.514;2022-09-21T00:24:32;7.22;;;4.90;;
55559;SDS011;41414;53.250;6.514;2022-09-21T00:26:59;10.30;;;5.85;;
55559;SDS011;41414;53.250;6.514;2022-09-21T00:29:25;9.55;;;4.93;;
55559;SDS011;41414;53.250;6.514;2022-09-21T00:31:51;9.82;;;4.32;;
55559;SDS011;41414;53.250;6.514;2022-09-21T00:34:17;18.52;;;5.57;;
55559;SDS011;41414;53.250;6.514;2022-09-21T00:36:44;13.15;;;4.78;;
55559;SDS011;41414;53.250;6.514;2022-09-21T00:39:10;34.92;;;6.78;;
55559;SDS011;41414;53.250;6.514;2022-09-21T00:41:36;68.65;;;8.10;;
55559;SDS011;41414;53.250;6.514;2022-09-21T00:44:31;69.78;;;8.45;;
55559;SDS011;41414;53.250;6.514;2022-09-21T00:46:57;200.38;;;11.38;;
55559;SDS011;41414;53.250;6.514;2022-09-21T00:49:25;176.95;;;10.35;;
55559;SDS011;41414;53.250;6.514;2022-09-21T00:51:52;177.35;;;9.85;;
55559;SDS011;41414;53.250;6.514;2022-09-21T00:54:20;65.82;;;8.13;;
55559;SDS011;41414;53.250;6.514;2022-09-21T00:56:48;29.48;;;7.43;;
55559;SDS011;41414;53.250;6.514;2022-09-21T00:59:14;111.63;;;10.68;;
55559;SDS011;41414;53.250;6.514;2022-09-21T01:01:42;87.65;;;8.15;;
55559;SDS011;41414;53.250;6.514;2022-09-21T01:04:09;300.08;;;19.38;;
55559;SDS011;41414;53.250;6.514;2022-09-21T01:06:36;237.23;;;14.88;;
55559;SDS011;41414;53.250;6.514;2022-09-21T01:09:02;208.82;;;13.65;;
55559;SDS011;41414;53.250;6.514;2022-09-21T01:11:32;129.52;;;9.40;;
55559;SDS011;41414;53.250;6.514;2022-09-21T01:18:58;97.32;;;10.43;;
55559;SDS011;41414;53.250;6.514;2022-09-21T01:21:30;88.13;;;7.50;;
55559;SDS011;41414;53.250;6.514;2022-09-21T01:26:31;112.93;;;11.45;;
55559;SDS011;41414;53.250;6.514;2022-09-21T01:31:37;158.70;;;10.77;;
55559;SDS011;41414;53.250;6.514;2022-09-21T01:34:07;54.45;;;6.60;;
55559;SDS011;41414;53.250;6.514;2022-09-21T01:36:35;47.17;;;6.07;;
55559;SDS011;41414;53.250;6.514;2022-09-21T01:39:06;27.80;;;7.47;;
55559;SDS011;41414;53.250;6.514;2022-09-21T01:41:32;36.30;;;7.32;;
55559;SDS011;41414;53.250;6.514;2022-09-21T01:44:05;159.27;;;13.07;;
55559;SDS011;41414;53.250;6.514;2022-09-21T01:46:33;188.75;;;14.75;;
55559;SDS011;41414;53.250;6.514;2022-09-21T01:49:00;86.13;;;9.77;;
55559;SDS011;41414;53.250;6.514;2022-09-21T01:51:29;101.38;;;9.07;;
55559;SDS011;41414;53.250;6.514;2022-09-21T01:53:58;75.70;;;9.02;;
55559;SDS011;41414;53.250;6.514;2022-09-21T01:59:10;53.83;;;8.35;;
55559;SDS011;41414;53.250;6.514;2022-09-21T02:01:43;60.90;;;8.25;;
55559;SDS011;41414;53.250;6.514;2022-09-21T02:04:11;46.08;;;7.80;;
55559;SDS011;41414;53.250;6.514;2022-09-21T02:06:39;10.90;;;5.95;;
55559;SDS011;41414;53.250;6.514;2022-09-21T02:09:06;12.77;;;6.90;;
55559;SDS011;41414;53.250;6.514;2022-09-21T02:11:33;60.92;;;10.15;;
55559;SDS011;41414;53.250;6.514;2022-09-21T02:14:06;16.70;;;8.77;;
55559;SDS011;41414;53.250;6.514;2022-09-21T02:21:39;25.25;;;12.30;;
55559;SDS011;41414;53.250;6.514;2022-09-21T02:24:12;15.05;;;9.95;;
55559;SDS011;41414;53.250;6.514;2022-09-21T02:26:42;88.73;;;11.50;;
55559;SDS011;41414;53.250;6.514;2022-09-21T02:29:13;156.52;;;15.43;;
55559;SDS011;41414;53.250;6.514;2022-09-21T02:31:46;230.23;;;16.08;;
55559;SDS011;41414;53.250;6.514;2022-09-21T02:34:20;260.63;;;18.33;;
55559;SDS011;41414;53.250;6.514;2022-09-21T02:36:53;191.65;;;11.70;;
55559;SDS011;41414;53.250;6.514;2022-09-21T02:39:27;171.20;;;10.57;;
55559;SDS011;41414;53.250;6.514;2022-09-21T02:44:29;134.23;;;9.30;;
55559;SDS011;41414;53.250;6.514;2022-09-21T02:46:58;83.47;;;8.23;;
55559;SDS011;41414;53.250;6.514;2022-09-21T02:49:29;108.57;;;10.50;;
55559;SDS011;41414;53.250;6.514;2022-09-21T02:51:57;16.55;;;6.32;;
55559;SDS011;41414;53.250;6.514;2022-09-21T02:54:25;11.27;;;4.15;;
55559;SDS011;41414;53.250;6.514;2022-09-21T02:56:52;127.95;;;11.43;;
55559;SDS011;41414;53.250;6.514;2022-09-21T02:59:19;47.55;;;7.47;;
55559;SDS011;41414;53.250;6.514;2022-09-21T03:01:48;19.88;;;6.97;;
55559;SDS011;41414;53.250;6.514;2022-09-21T03:04:15;15.35;;;8.75;;
55559;SDS011;41414;53.250;6.514;2022-09-21T03:06:41;16.08;;;9.25;;
55559;SDS011;41414;53.250;6.514;2022-09-21T03:09:07;21.88;;;10.43;;
55559;SDS011;41414;53.250;6.514;2022-09-21T03:11:34;32.38;;;10.52;;
55559;SDS011;41414;53.250;6.514;2022-09-21T03:14:00;55.25;;;8.40;;
55559;SDS011;41414;53.250;6.514;2022-09-21T03:16:32;35.10;;;8.88;;
55559;SDS011;41414;53.250;6.514;2022-09-21T03:18:58;72.07;;;8.88;;
55559;SDS011;41414;53.250;6.514;2022-09-21T03:21:25;27.08;;;6.75;;
55559;SDS011;41414;53.250;6.514;2022-09-21T03:23:51;51.38;;;7.60;;
55559;SDS011;41414;53.250;6.514;2022-09-21T03:26:17;37.08;;;8.63;;
55559;SDS011;41414;53.250;6.514;2022-09-21T03:28:47;26.33;;;6.53;;
55559;SDS011;41414;53.250;6.514;2022-09-21T03:31:13;25.60;;;5.60;;
55559;SDS011;41414;53.250;6.514;2022-09-21T03:33:39;22.30;;;7.10;;
55559;SDS011;41414;53.250;6.514;2022-09-21T03:36:06;61.13;;;9.10;;
55559;SDS011;41414;53.250;6.514;2022-09-21T03:38:32;46.60;;;9.10;;
55559;SDS011;41414;53.250;6.514;2022-09-21T03:40:59;59.42;;;7.50;;
55559;SDS011;41414;53.250;6.514;2022-09-21T03:43:25;57.72;;;8.38;;
55559;SDS011;41414;53.250;6.514;2022-09-21T03:45:51;68.97;;;9.20;;
55559;SDS011;41414;53.250;6.514;2022-09-21T03:48:18;160.80;;;11.52;;
55559;SDS011;41414;53.250;6.514;2022-09-21T03:50:45;248.52;;;16.27;;
55559;SDS011;41414;53.250;6.514;2022-09-21T03:53:12;223.25;;;15.52;;
55559;SDS011;41414;53.250;6.514;2022-09-21T03:55:39;143.15;;;9.77;;
55559;SDS011;41414;53.250;6.514;2022-09-21T03:58:05;125.70;;;8.77;;
55559;SDS011;41414;53.250;6.514;2022-09-21T04:00:32;34.70;;;5.07;;
55559;SDS011;41414;53.250;6.514;2022-09-21T04:02:58;37.47;;;5.47;;
55559;SDS011;41414;53.250;6.514;2022-09-21T04:05:26;130.40;;;10.20;;
55559;SDS011;41414;53.250;6.514;2022-09-21T04:07:53;142.15;;;9.23;;
55559;SDS011;41414;53.250;6.514;2022-09-21T04:10:20;138.40;;;8.57;;
55559;SDS011;41414;53.250;6.514;2022-09-21T04:12:50;88.50;;;6.35;;
55559;SDS011;41414;53.250;6.514;2022-09-21T04:15:17;147.40;;;9.85;;
55559;SDS011;41414;53.250;6.514;2022-09-21T04:17:44;8.32;;;3.28;;
55559;SDS011;41414;53.250;6.514;2022-09-21T04:20:11;61.95;;;5.82;;
55559;SDS011;41414;53.250;6.514;2022-09-21T04:22:37;132.90;;;8.68;;
55559;SDS011;41414;53.250;6.514;2022-09-21T04:25:04;89.38;;;7.47;;
55559;SDS011;41414;53.250;6.514;2022-09-21T04:27:30;74.57;;;6.68;;
55559;SDS011;41414;53.250;6.514;2022-09-21T04:29:57;8.63;;;3.05;;
55559;SDS011;41414;53.250;6.514;2022-09-21T04:32:23;7.32;;;3.17;;
55559;SDS011;41414;53.250;6.514;2022-09-21T04:34:49;6.75;;;4.75;;
55559;SDS011;41414;53.250;6.514;2022-09-21T04:37:16;15.00;;;4.28;;
55559;SDS011;41414;53.250;6.514;2022-09-21T04:39:42;9.63;;;4.22;;
55559;SDS011;41414;53.250;6.514;2022-09-21T04:42:09;9.57;;;4.68;;
55559;SDS011;41414;53.250;6.514;2022-09-21T04:44:35;14.80;;;5.43;;
55559;SDS011;41414;53.250;6.514;2022-09-21T04:47:01;10.68;;;5.18;;
55559;SDS011;41414;53.250;6.514;2022-09-21T04:49:28;7.15;;;4.90;;
55559;SDS011;41414;53.250;6.514;2022-09-21T04:51:54;17.95;;;5.75;;
55559;SDS011;41414;53.250;6.514;2022-09-21T04:54:20;8.20;;;6.13;;
55559;SDS011;41414;53.250;6.514;2022-09-21T04:56:46;195.55;;;15.13;;
55559;SDS011;41414;53.250;6.514;2022-09-21T04:59:13;220.75;;;17.10;;
55559;SDS011;41414;53.250;6.514;2022-09-21T05:01:39;67.25;;;7.88;;
55559;SDS011;41414;53.250;6.514;2022-09-21T05:04:05;58.70;;;7.35;;
55559;SDS011;41414;53.250;6.514;2022-09-21T05:06:31;46.33;;;7.88;;
55559;SDS011;41414;53.250;6.514;2022-09-21T05:08:58;76.57;;;8.27;;
55559;SDS011;41414;53.250;6.514;2022-09-21T05:11:43;84.07;;;7.90;;
55559;SDS011;41414;53.250;6.514;2022-09-21T05:14:09;137.93;;;10.68;;
55559;SDS011;41414;53.250;6.514;2022-09-21T05:16:36;160.30;;;11.00;;
55559;SDS011;41414;53.250;6.514;2022-09-21T05:19:02;42.58;;;5.93;;
55559;SDS011;41414;53.250;6.514;2022-09-21T05:21:29;66.20;;;8.50;;
55559;SDS011;41414;53.250;6.514;2022-09-21T05:23:56;160.52;;;10.18;;
55559;SDS011;41414;53.250;6.514;2022-09-21T05:26:23;67.65;;;7.10;;
55559;SDS011;41414;53.250;6.514;2022-09-21T05:28:49;17.17;;;5.22;;
55559;SDS011;41414;53.250;6.514;2022-09-21T05:33:45;20.38;;;6.88;;
55559;SDS011;41414;53.250;6.514;2022-09-21T05:36:26;99.75;;;11.50;;
55559;SDS011;41414;53.250;6.514;2022-09-21T05:38:55;70.25;;;9.75;;
55559;SDS011;41414;53.250;6.514;2022-09-21T05:41:22;78.93;;;9.52;;
55559;SDS011;41414;53.250;6.514;2022-09-21T05:43:48;25.00;;;9.30;;
55559;SDS011;41414;53.250;6.514;2022-09-21T05:46:19;20.83;;;10.48;;
55559;SDS011;41414;53.250;6.514;2022-09-21T05:48:55;14.18;;;9.85;;
55559;SDS011;41414;53.250;6.514;2022-09-21T05:58:55;15.25;;;10.23;;
55559;SDS011;41414;53.250;6.514;2022-09-21T06:03:54;11.75;;;8.73;;
55559;SDS011;41414;53.250;6.514;2022-09-21T06:06:20;14.73;;;9.05;;
55559;SDS011;41414;53.250;6.514;2022-09-21T06:08:46;13.77;;;9.82;;
55559;SDS011;41414;53.250;6.514;2022-09-21T06:11:13;16.95;;;8.57;;
55559;SDS011;41414;53.250;6.514;2022-09-21T06:13:39;15.82;;;9.43;;
55559;SDS011;41414;53.250;6.514;2022-09-21T06:16:05;18.35;;;10.07;;
55559;SDS011;41414;53.250;6.514;2022-09-21T06:18:35;12.70;;;8.52;;
55559;SDS011;41414;53.250;6.514;2022-09-21T06:21:02;14.17;;;9.10;;
55559;SDS011;41414;53.250;6.514;2022-09-21T06:23:28;18.65;;;9.23;;
55559;SDS011;41414;53.250;6.514;2022-09-21T06:25:55;12.02;;;8.68;;
55559;SDS011;41414;53.250;6.514;2022-09-21T06:28:21;13.68;;;7.82;;
55559;SDS011;41414;53.250;6.514;2022-09-21T06:30:49;17.05;;;9.77;;
55559;SDS011;41414;53.250;6.514;2022-09-21T06:33:15;17.15;;;9.13;;
55559;SDS011;41414;53.250;6.514;2022-09-21T06:35:52;15.50;;;8.95;;
55559;SDS011;41414;53.250;6.514;2022-09-21T06:38:19;13.95;;;9.27;;
55559;SDS011;41414;53.250;6.514;2022-09-21T06:40:45;13.77;;;8.68;;
55559;SDS011;41414;53.250;6.514;2022-09-21T06:43:12;15.18;;;9.18;;
55559;SDS011;41414;53.250;6.514;2022-09-21T06:45:38;16.85;;;8.85;;
55559;SDS011;41414;53.250;6.514;2022-09-21T06:48:04;18.63;;;9.75;;
55559;SDS011;41414;53.250;6.514;2022-09-21T06:50:30;13.55;;;10.10;;
55559;SDS011;41414;53.250;6.514;2022-09-21T06:52:59;14.57;;;9.63;;
55559;SDS011;41414;53.250;6.514;2022-09-21T06:55:25;17.83;;;10.55;;
55559;SDS011;41414;53.250;6.514;2022-09-21T06:57:51;15.68;;;10.27;;
55559;SDS011;41414;53.250;6.514;2022-09-21T07:00:17;15.63;;;10.48;;
55559;SDS011;41414;53.250;6.514;2022-09-21T07:02:44;17.65;;;11.10;;
55559;SDS011;41414;53.250;6.514;2022-09-21T07:05:10;20.40;;;11.25;;
55559;SDS011;41414;53.250;6.514;2022-09-21T07:07:36;16.63;;;10.93;;
55559;SDS011;41414;53.250;6.514;2022-09-21T07:10:04;15.95;;;10.57;;
55559;SDS011;41414;53.250;6.514;2022-09-21T07:12:32;17.75;;;10.63;;
55559;SDS011;41414;53.250;6.514;2022-09-21T07:14:59;25.88;;;10.88;;
55559;SDS011;41414;53.250;6.514;2022-09-21T07:17:30;18.70;;;10.50;;
55559;SDS011;41414;53.250;6.514;2022-09-21T07:19:56;17.38;;;9.82;;
55559;SDS011;41414;53.250;6.514;2022-09-21T07:22:22;17.70;;;8.63;;
55559;SDS011;41414;53.250;6.514;2022-09-21T07:24:48;20.35;;;9.20;;
55559;SDS011;41414;53.250;6.514;2022-09-21T07:27:14;20.13;;;7.95;;
55559;SDS011;41414;53.250;6.514;2022-09-21T07:29:41;14.02;;;7.63;;
55559;SDS011;41414;53.250;6.514;2022-09-21T07:32:07;13.93;;;7.47;;
55559;SDS011;41414;53.250;6.514;2022-09-21T07:34:34;18.15;;;7.68;;
55559;SDS011;41414;53.250;6.514;2022-09-21T07:37:01;15.10;;;7.35;;
55559;SDS011;41414;53.250;6.514;2022-09-21T07:39:28;18.73;;;7.18;;
55559;SDS011;41414;53.250;6.514;2022-09-21T07:41:54;11.52;;;7.78;;
55559;SDS011;41414;53.250;6.514;2022-09-21T07:44:22;11.63;;;6.55;;
55559;SDS011;41414;53.250;6.514;2022-09-21T07:46:48;12.13;;;6.93;;
55559;SDS011;41414;53.250;6.514;2022-09-21T07:49:14;16.40;;;6.50;;
55559;SDS011;41414;53.250;6.514;2022-09-21T07:51:40;11.05;;;4.22;;
55559;SDS011;41414;53.250;6.514;2022-09-21T07:54:08;10.57;;;4.53;;
55559;SDS011;41414;53.250;6.514;2022-09-21T07:56:36;12.93;;;5.05;;
55559;SDS011;41414;53.250;6.514;2022-09-21T07:59:03;10.82;;;4.63;;
55559;SDS011;41414;53.250;6.514;2022-09-21T08:01:30;9.18;;;4.82;;
55559;SDS011;41414;53.250;6.514;2022-09-21T08:03:57;7.35;;;4.20;;
55559;SDS011;41414;53.250;6.514;2022-09-21T08:06:25;13.00;;;4.43;;
55559;SDS011;41414;53.250;6.514;2022-09-21T08:08:51;8.57;;;3.90;;
55559;SDS011;41414;53.250;6.514;2022-09-21T08:11:18;12.25;;;4.60;;
55559;SDS011;41414;53.250;6.514;2022-09-21T08:13:46;9.10;;;3.92;;
55559;SDS011;41414;53.250;6.514;2022-09-21T08:16:13;14.75;;;4.15;;
55559;SDS011;41414;53.250;6.514;2022-09-21T08:18:39;8.02;;;3.58;;
55559;SDS011;41414;53.250;6.514;2022-09-21T08:21:06;11.90;;;3.85;;
55559;SDS011;41414;53.250;6.514;2022-09-21T08:23:33;6.75;;;3.17;;
55559;SDS011;41414;53.250;6.514;2022-09-21T08:26:04;7.43;;;3.42;;
55559;SDS011;41414;53.250;6.514;2022-09-21T08:28:32;7.15;;;3.40;;
55559;SDS011;41414;53.250;6.514;2022-09-21T08:30:59;10.50;;;3.03;;
55559;SDS011;41414;53.250;6.514;2022-09-21T08:33:25;7.88;;;2.58;;
55559;SDS011;41414;53.250;6.514;2022-09-21T08:35:54;7.50;;;2.40;;
55559;SDS011;41414;53.250;6.514;2022-09-21T08:38:20;6.28;;;3.20;;
55559;SDS011;41414;53.250;6.514;2022-09-21T08:40:46;11.95;;;3.35;;
55559;SDS011;41414;53.250;6.514;2022-09-21T08:43:15;14.70;;;2.85;;
55559;SDS011;41414;53.250;6.514;2022-09-21T08:45:43;12.43;;;3.65;;
55559;SDS011;41414;53.250;6.514;2022-09-21T08:48:13;8.80;;;2.05;;
55559;SDS011;41414;53.250;6.514;2022-09-21T08:50:45;10.60;;;3.05;;
55559;SDS011;41414;53.250;6.514;2022-09-21T08:53:13;6.45;;;2.55;;
55559;SDS011;41414;53.250;6.514;2022-09-21T08:55:41;6.20;;;1.58;;
55559;SDS011;41414;53.250;6.514;2022-09-21T08:58:19;8.15;;;2.40;;
55559;SDS011;41414;53.250;6.514;2022-09-21T09:00:47;6.38;;;1.95;;
55559;SDS011;41414;53.250;6.514;2022-09-21T09:05:47;8.30;;;1.80;;
55559;SDS011;41414;53.250;6.514;2022-09-21T09:08:28;7.35;;;2.03;;
55559;SDS011;41414;53.250;6.514;2022-09-21T09:11:03;8.60;;;1.30;;
55559;SDS011;41414;53.250;6.514;2022-09-21T09:13:42;6.18;;;1.83;;
55559;SDS011;41414;53.250;6.514;2022-09-21T09:18:48;5.90;;;1.25;;
55559;SDS011;41414;53.250;6.514;2022-09-21T09:23:44;7.32;;;1.23;;
55559;SDS011;41414;53.250;6.514;2022-09-21T09:26:17;7.18;;;1.15;;
55559;SDS011;41414;53.250;6.514;2022-09-21T09:28:50;9.10;;;1.50;;
55559;SDS011;41414;53.250;6.514;2022-09-21T09:31:22;12.07;;;1.30;;
55559;SDS011;41414;53.250;6.514;2022-09-21T09:33:51;6.65;;;1.10;;
55559;SDS011;41414;53.250;6.514;2022-09-21T09:36:18;7.13;;;1.38;;
55559;SDS011;41414;53.250;6.514;2022-09-21T09:38:50;6.15;;;1.50;;
55559;SDS011;41414;53.250;6.514;2022-09-21T09:41:28;8.05;;;1.10;;
55559;SDS011;41414;53.250;6.514;2022-09-21T09:46:36;5.43;;;1.10;;
55559;SDS011;41414;53.250;6.514;2022-09-21T09:49:14;3.38;;;0.90;;
55559;SDS011;41414;53.250;6.514;2022-09-21T09:51:43;4.45;;;1.00;;
55559;SDS011;41414;53.250;6.514;2022-09-21T09:54:12;5.75;;;1.35;;
55559;SDS011;41414;53.250;6.514;2022-09-21T09:56:39;6.68;;;1.20;;
55559;SDS011;41414;53.250;6.514;2022-09-21T09:59:08;5.80;;;1.02;;
55559;SDS011;41414;53.250;6.514;2022-09-21T10:01:37;5.85;;;0.82;;
55559;SDS011;41414;53.250;6.514;2022-09-21T10:04:05;8.88;;;1.08;;
55559;SDS011;41414;53.250;6.514;2022-09-21T10:06:32;6.15;;;1.52;;
55559;SDS011;41414;53.250;6.514;2022-09-21T10:08:58;6.13;;;1.08;;
55559;SDS011;41414;53.250;6.514;2022-09-21T10:11:33;2.83;;;0.90;;
55559;SDS011;41414;53.250;6.514;2022-09-21T10:14:08;5.03;;;1.10;;
55559;SDS011;41414;53.250;6.514;2022-09-21T10:16:42;2.85;;;0.73;;
55559;SDS011;41414;53.250;6.514;2022-09-21T10:19:16;6.60;;;1.10;;
55559;SDS011;41414;53.250;6.514;2022-09-21T10:21:43;4.93;;;0.93;;
55559;SDS011;41414;53.250;6.514;2022-09-21T10:24:14;7.15;;;1.13;;
55559;SDS011;41414;53.250;6.514;2022-09-21T10:26:44;7.20;;;1.40;;
55559;SDS011;41414;53.250;6.514;2022-09-21T10:29:27;5.75;;;1.20;;
55559;SDS011;41414;53.250;6.514;2022-09-21T10:31:55;7.50;;;1.30;;
55559;SDS011;41414;53.250;6.514;2022-09-21T10:34:22;6.07;;;1.10;;
55559;SDS011;41414;53.250;6.514;2022-09-21T10:36:49;5.60;;;1.08;;
55559;SDS011;41414;53.250;6.514;2022-09-21T10:41:46;5.70;;;1.00;;
55559;SDS011;41414;53.250;6.514;2022-09-21T10:44:15;4.38;;;0.80;;
55559;SDS011;41414;53.250;6.514;2022-09-21T10:46:42;7.15;;;1.27;;
55559;SDS011;41414;53.250;6.514;2022-09-21T10:49:12;5.15;;;1.05;;
55559;SDS011;41414;53.250;6.514;2022-09-21T10:51:40;3.47;;;1.13;;
55559;SDS011;41414;53.250;6.514;2022-09-21T10:54:09;5.05;;;1.52;;
55559;SDS011;41414;53.250;6.514;2022-09-21T10:56:36;5.18;;;0.95;;
55559;SDS011;41414;53.250;6.514;2022-09-21T10:59:20;5.57;;;1.60;;
55559;SDS011;41414;53.250;6.514;2022-09-21T11:01:47;2.55;;;0.85;;
55559;SDS011;41414;53.250;6.514;2022-09-21T11:04:17;3.20;;;0.95;;
55559;SDS011;41414;53.250;6.514;2022-09-21T11:06:46;5.47;;;0.90;;
55559;SDS011;41414;53.250;6.514;2022-09-21T11:09:16;3.30;;;0.75;;
55559;SDS011;41414;53.250;6.514;2022-09-21T11:11:48;2.88;;;0.80;;
55559;SDS011;41414;53.250;6.514;2022-09-21T11:16:53;6.75;;;0.90;;
55559;SDS011;41414;53.250;6.514;2022-09-21T11:24:27;2.88;;;0.82;;
55559;SDS011;41414;53.250;6.514;2022-09-21T11:26:57;3.03;;;1.08;;
55559;SDS011;41414;53.250;6.514;2022-09-21T11:29:29;4.53;;;0.70;;
55559;SDS011;41414;53.250;6.514;2022-09-21T11:32:01;3.90;;;0.98;;
55559;SDS011;41414;53.250;6.514;2022-09-21T11:34:37;6.53;;;1.00;;
55559;SDS011;41414;53.250;6.514;2022-09-21T11:39:43;3.10;;;0.82;;
55559;SDS011;41414;53.250;6.514;2022-09-21T11:42:27;3.28;;;1.08;;
55559;SDS011;41414;53.250;6.514;2022-09-21T11:44:59;3.47;;;1.10;;
55559;SDS011;41414;53.250;6.514;2022-09-21T11:50:25;4.05;;;0.80;;
55559;SDS011;41414;53.250;6.514;2022-09-21T11:55:35;4.18;;;0.70;;
55559;SDS011;41414;53.250;6.514;2022-09-21T11:58:27;4.55;;;0.98;;
55559;SDS011;41414;53.250;6.514;2022-09-21T12:01:00;4.43;;;0.95;;
55559;SDS011;41414;53.250;6.514;2022-09-21T12:03:36;2.75;;;0.70;;
55559;SDS011;41414;53.250;6.514;2022-09-21T12:06:05;1.67;;;0.57;;
55559;SDS011;41414;53.250;6.514;2022-09-21T12:13:46;6.45;;;1.10;;
55559;SDS011;41414;53.250;6.514;2022-09-21T12:21:22;3.72;;;0.80;;
55559;SDS011;41414;53.250;6.514;2022-09-21T12:23:51;5.10;;;0.73;;
55559;SDS011;41414;53.250;6.514;2022-09-21T12:26:19;3.42;;;0.52;;
55559;SDS011;41414;53.250;6.514;2022-09-21T12:28:56;2.78;;;1.17;;
55559;SDS011;41414;53.250;6.514;2022-09-21T12:31:34;4.57;;;1.10;;
55559;SDS011;41414;53.250;6.514;2022-09-21T12:39:24;4.22;;;0.90;;
55559;SDS011;41414;53.250;6.514;2022-09-21T12:41:58;2.83;;;0.80;;
55559;SDS011;41414;53.250;6.514;2022-09-21T12:44:31;4.57;;;1.02;;
55559;SDS011;41414;53.250;6.514;2022-09-21T12:47:16;2.63;;;0.88;;
55559;SDS011;41414;53.250;6.514;2022-09-21T12:49:45;3.20;;;1.02;;
55559;SDS011;41414;53.250;6.514;2022-09-21T12:52:21;5.82;;;1.08;;
55559;SDS011;41414;53.250;6.514;2022-09-21T13:00:09;2.85;;;0.77;;
55559;SDS011;41414;53.250;6.514;2022-09-21T13:02:40;5.18;;;0.90;;
55559;SDS011;41414;53.250;6.514;2022-09-21T13:05:15;5.40;;;1.00;;
55559;SDS011;41414;53.250;6.514;2022-09-21T13:10:13;2.83;;;0.95;;
55559;SDS011;41414;53.250;6.514;2022-09-21T13:12:41;4.35;;;1.02;;
55559;SDS011;41414;53.250;6.514;2022-09-21T13:15:11;5.03;;;1.00;;
55559;SDS011;41414;53.250;6.514;2022-09-21T13:17:38;2.75;;;0.63;;
55559;SDS011;41414;53.250;6.514;2022-09-21T13:20:06;3.20;;;0.77;;
55559;SDS011;41414;53.250;6.514;2022-09-21T13:22:41;4.35;;;1.00;;
55559;SDS011;41414;53.250;6.514;2022-09-21T13:30:34;2.22;;;0.80;;
55559;SDS011;41414;53.250;6.514;2022-09-21T13:33:01;2.85;;;0.85;;
55559;SDS011;41414;53.250;6.514;2022-09-21T13:35:47;2.67;;;0.85;;
55559;SDS011;41414;53.250;6.514;2022-09-21T13:38:27;4.90;;;0.95;;
55559;SDS011;41414;53.250;6.514;2022-09-21T13:40:56;5.95;;;0.88;;
55559;SDS011;41414;53.250;6.514;2022-09-21T13:43:23;3.35;;;1.00;;
55559;SDS011;41414;53.250;6.514;2022-09-21T13:45:51;3.63;;;0.98;;
55559;SDS011;41414;53.250;6.514;2022-09-21T13:48:19;4.10;;;0.82;;
55559;SDS011;41414;53.250;6.514;2022-09-21T13:50:55;3.40;;;0.90;;
55559;SDS011;41414;53.250;6.514;2022-09-21T13:53:22;4.82;;;1.00;;
55559;SDS011;41414;53.250;6.514;2022-09-21T13:55:50;3.80;;;0.85;;
55559;SDS011;41414;53.250;6.514;2022-09-21T13:58:18;5.60;;;0.90;;
55559;SDS011;41414;53.250;6.514;2022-09-21T14:03:33;6.03;;;1.20;;
55559;SDS011;41414;53.250;6.514;2022-09-21T14:06:07;4.30;;;1.52;;
55559;SDS011;41414;53.250;6.514;2022-09-21T14:08:35;3.85;;;0.80;;
55559;SDS011;41414;53.250;6.514;2022-09-21T14:11:07;3.75;;;0.75;;
55559;SDS011;41414;53.250;6.514;2022-09-21T14:13:35;5.13;;;1.17;;
55559;SDS011;41414;53.250;6.514;2022-09-21T14:18:58;5.78;;;1.20;;
55559;SDS011;41414;53.250;6.514;2022-09-21T14:21:25;5.07;;;1.00;;
55559;SDS011;41414;53.250;6.514;2022-09-21T14:28:58;7.22;;;1.10;;
55559;SDS011;41414;53.250;6.514;2022-09-21T14:31:30;3.83;;;0.82;;
55559;SDS011;41414;53.250;6.514;2022-09-21T14:33:59;2.85;;;0.95;;
55559;SDS011;41414;53.250;6.514;2022-09-21T14:36:37;2.13;;;0.70;;
55559;SDS011;41414;53.250;6.514;2022-09-21T14:39:12;9.10;;;1.52;;
55559;SDS011;41414;53.250;6.514;2022-09-21T14:41:41;4.18;;;1.00;;
55559;SDS011;41414;53.250;6.514;2022-09-21T14:44:15;3.95;;;1.00;;
55559;SDS011;41414;53.250;6.514;2022-09-21T14:46:46;3.55;;;0.70;;
55559;SDS011;41414;53.250;6.514;2022-09-21T14:49:28;5.50;;;0.90;;
55559;SDS011;41414;53.250;6.514;2022-09-21T14:54:30;5.72;;;0.95;;
55559;SDS011;41414;53.250;6.514;2022-09-21T14:57:12;4.53;;;0.88;;
55559;SDS011;41414;53.250;6.514;2022-09-21T14:59:45;6.15;;;1.13;;
55559;SDS011;41414;53.250;6.514;2022-09-21T15:02:16;5.50;;;1.02;;
55559;SDS011;41414;53.250;6.514;2022-09-21T15:04:49;5.93;;;1.10;;
55559;SDS011;41414;53.250;6.514;2022-09-21T15:10:20;4.85;;;1.30;;
55559;SDS011;41414;53.250;6.514;2022-09-21T15:15:39;5.75;;;1.25;;
55559;SDS011;41414;53.250;6.514;2022-09-21T15:18:17;4.20;;;1.00;;
55559;SDS011;41414;53.250;6.514;2022-09-21T15:20:44;6.13;;;1.33;;
55559;SDS011;41414;53.250;6.514;2022-09-21T15:23:18;6.10;;;1.00;;
55559;SDS011;41414;53.250;6.514;2022-09-21T15:25:52;6.15;;;1.15;;
55559;SDS011;41414;53.250;6.514;2022-09-21T15:28:24;3.47;;;0.95;;
55559;SDS011;41414;53.250;6.514;2022-09-21T15:30:50;3.55;;;0.60;;
55559;SDS011;41414;53.250;6.514;2022-09-21T15:33:21;4.22;;;1.17;;
55559;SDS011;41414;53.250;6.514;2022-09-21T15:35:47;2.80;;;1.13;;
55559;SDS011;41414;53.250;6.514;2022-09-21T15:40:46;5.03;;;1.00;;
55559;SDS011;41414;53.250;6.514;2022-09-21T15:48:11;3.28;;;0.88;;
55559;SDS011;41414;53.250;6.514;2022-09-21T15:50:38;5.13;;;1.13;;
55559;SDS011;41414;53.250;6.514;2022-09-21T15:53:07;6.53;;;1.23;;
55559;SDS011;41414;53.250;6.514;2022-09-21T15:55:34;3.00;;;0.70;;
55559;SDS011;41414;53.250;6.514;2022-09-21T15:58:00;2.83;;;0.95;;
55559;SDS011;41414;53.250;6.514;2022-09-21T16:00:29;3.47;;;1.02;;
55559;SDS011;41414;53.250;6.514;2022-09-21T16:03:06;3.67;;;1.13;;
55559;SDS011;41414;53.250;6.514;2022-09-21T16:08:19;4.07;;;1.02;;
55559;SDS011;41414;53.250;6.514;2022-09-21T16:10:47;5.40;;;1.00;;
55559;SDS011;41414;53.250;6.514;2022-09-21T16:13:16;4.55;;;1.30;;
55559;SDS011;41414;53.250;6.514;2022-09-21T16:16:03;6.47;;;0.95;;
55559;SDS011;41414;53.250;6.514;2022-09-21T16:18:31;6.18;;;1.17;;
55559;SDS011;41414;53.250;6.514;2022-09-21T16:21:06;5.93;;;1.33;;
55559;SDS011;41414;53.250;6.514;2022-09-21T16:23:33;7.60;;;1.05;;
55559;SDS011;41414;53.250;6.514;2022-09-21T16:26:01;3.55;;;0.85;;
55559;SDS011;41414;53.250;6.514;2022-09-21T16:28:34;4.75;;;0.80;;
55559;SDS011;41414;53.250;6.514;2022-09-21T16:31:19;5.05;;;1.17;;
55559;SDS011;41414;53.250;6.514;2022-09-21T16:38:46;6.32;;;1.55;;
55559;SDS011;41414;53.250;6.514;2022-09-21T16:41:14;4.80;;;0.75;;
55559;SDS011;41414;53.250;6.514;2022-09-21T16:43:41;1.80;;;0.90;;
55559;SDS011;41414;53.250;6.514;2022-09-21T16:46:08;4.82;;;0.98;;
55559;SDS011;41414;53.250;6.514;2022-09-21T16:48:35;7.43;;;1.35;;
55559;SDS011;41414;53.250;6.514;2022-09-21T16:51:01;5.82;;;1.10;;
55559;SDS011;41414;53.250;6.514;2022-09-21T16:53:27;5.22;;;1.35;;